createdAt,value
2019-05-11T00:08:00.945Z,11.84
2019-05-11T00:13:04.425Z,11.85
2019-05-11T00:18:07.937Z,11.78
2019-05-11T00:23:11.374Z,11.66
2019-05-11T00:28:14.909Z,11.77
2019-05-11T00:33:18.632Z,11.80
2019-05-11T00:38:22.060Z,11.64
2019-05-11T00:43:25.493Z,11.68
2019-05-11T00:48:28.929Z,11.68
2019-05-11T00:53:33.054Z,11.76
2019-05-11T00:58:36.516Z,11.84
2019-05-11T01:03:39.950Z,11.87
2019-05-11T01:08:43.633Z,11.88
2019-05-11T01:13:47.066Z,11.95
2019-05-11T01:18:50.790Z,12.01
2019-05-11T01:23:54.220Z,12.05
2019-05-11T01:28:57.662Z,12.11
2019-05-11T01:34:01.094Z,12.15
2019-05-11T01:39:06.531Z,12.23
2019-05-11T01:44:09.959Z,12.30
2019-05-11T01:49:13.667Z,12.25
2019-05-11T01:54:17.056Z,12.28
2019-05-11T01:59:20.448Z,12.38
2019-05-11T02:04:23.833Z,12.42
2019-05-11T02:09:27.224Z,12.56
2019-05-11T02:14:30.612Z,12.74
2019-05-11T02:19:34.242Z,12.88
2019-05-11T02:24:37.639Z,12.83
2019-05-11T02:29:41.773Z,12.66
2019-05-11T02:34:45.484Z,12.46
2019-05-11T02:39:48.877Z,12.50
2019-05-11T02:44:52.629Z,12.47
2019-05-11T02:49:56.218Z,12.53
2019-05-11T02:55:01.626Z,12.60
2019-05-11T03:00:08.195Z,12.54
2019-05-11T03:05:11.734Z,12.44
2019-05-11T03:10:15.126Z,12.41
2019-05-11T03:15:18.539Z,12.44
2019-05-11T03:20:21.942Z,12.33
2019-05-11T03:25:25.350Z,12.18
2019-05-11T03:30:28.971Z,12.21
2019-05-11T03:35:32.386Z,12.28
2019-05-11T03:40:35.794Z,12.26
2019-05-11T03:45:39.193Z,12.27
2019-05-11T03:50:42.591Z,12.32
2019-05-11T03:55:45.985Z,12.31
2019-05-11T04:00:49.639Z,12.39
2019-05-11T04:05:53.271Z,12.44
2019-05-11T04:10:56.684Z,12.58
2019-05-11T04:16:00.148Z,12.61
2019-05-11T04:21:03.547Z,12.73
2019-05-11T04:26:06.962Z,12.82
2019-05-11T04:31:10.358Z,12.80
2019-05-11T04:36:13.756Z,12.85
2019-05-11T04:41:17.398Z,12.76
2019-05-11T04:46:20.877Z,12.69
2019-05-11T04:51:24.295Z,12.71
2019-05-11T04:56:27.690Z,12.73
2019-05-11T05:01:31.283Z,12.81
2019-05-11T05:06:34.693Z,12.79
2019-05-11T05:11:38.501Z,12.87
2019-05-11T05:16:41.995Z,12.89
2019-05-11T05:21:45.617Z,12.94
2019-05-11T05:26:49.007Z,12.90
2019-05-11T05:31:52.428Z,12.89
2019-05-11T05:36:56.060Z,12.88
2019-05-11T05:41:59.448Z,12.91
2019-05-11T05:47:02.838Z,12.80
2019-05-11T05:52:06.496Z,12.89
2019-05-11T05:57:09.835Z,12.99
2019-05-11T06:02:13.235Z,13.06
2019-05-11T06:07:16.619Z,13.06
2019-05-11T06:12:20.012Z,13.15
2019-05-11T06:17:23.457Z,13.17
2019-05-11T06:22:26.873Z,13.22
2019-05-11T06:27:30.286Z,13.26
2019-05-11T06:32:33.685Z,13.44
2019-05-11T06:37:37.076Z,13.59
2019-05-11T06:42:40.464Z,13.79
2019-05-11T06:47:44.091Z,13.97
2019-05-11T06:52:48.017Z,14.17
2019-05-11T06:57:51.409Z,14.31
2019-05-11T07:02:55.042Z,14.50
2019-05-11T07:07:58.439Z,14.68
2019-05-11T07:13:02.179Z,14.73
2019-05-11T07:18:05.578Z,15.03
2019-05-11T07:23:08.968Z,15.15
2019-05-11T07:28:12.380Z,15.15
2019-05-11T07:33:18.163Z,15.23
2019-05-11T07:38:20.903Z,15.27
2019-05-11T07:43:24.291Z,15.18
2019-05-11T07:48:28.086Z,15.12
2019-05-11T07:53:31.407Z,15.23
2019-05-11T07:58:35.060Z,15.31
2019-05-11T08:03:39.009Z,15.40
2019-05-11T08:08:42.440Z,15.41
2019-05-11T08:13:47.909Z,15.65
2019-05-11T08:18:50.959Z,15.65
2019-05-11T08:23:54.350Z,15.86
2019-05-11T08:28:58.125Z,16.06
2019-05-11T08:34:01.489Z,16.22
2019-05-11T08:39:07.853Z,16.40
2019-05-11T08:44:11.289Z,16.48
2019-05-11T08:49:15.897Z,16.60
2019-05-11T08:54:19.809Z,16.70
2019-05-11T08:59:23.435Z,16.94
2019-05-11T09:04:28.785Z,17.14
2019-05-11T09:09:32.013Z,17.25
2019-05-11T09:14:35.404Z,17.51
2019-05-11T09:19:38.991Z,17.57
2019-05-11T09:24:42.365Z,17.95
2019-05-11T09:29:47.845Z,17.94
2019-05-11T09:34:51.100Z,17.86
2019-05-11T09:39:54.492Z,17.96
2019-05-11T09:44:58.125Z,18.11
2019-05-11T09:50:01.528Z,18.21
2019-05-11T09:55:08.733Z,18.26
2019-05-11T10:00:12.565Z,18.20
2019-05-11T10:05:18.567Z,18.05
2019-05-11T10:10:21.378Z,18.02
2019-05-11T10:15:24.769Z,18.04
2019-05-11T10:20:28.796Z,18.05
2019-05-11T10:25:32.500Z,17.99
2019-05-11T10:30:38.402Z,17.79
2019-05-11T10:35:41.003Z,17.82
2019-05-11T10:40:44.393Z,17.73
2019-05-11T10:45:48.478Z,17.71
2019-05-11T10:50:51.858Z,17.78
2019-05-11T10:55:55.249Z,17.76
2019-05-11T11:00:58.649Z,17.72
2019-05-11T11:06:02.062Z,17.54
2019-05-11T11:11:07.880Z,17.33
2019-05-11T11:16:10.583Z,17.27
2019-05-11T11:21:13.973Z,17.31
2019-05-11T11:26:18.433Z,17.28
2019-05-11T11:31:21.998Z,17.31
2019-05-11T11:36:25.390Z,17.32
2019-05-11T11:41:30.020Z,17.25
2019-05-11T11:46:47.642Z,17.28
2019-05-11T11:51:38.637Z,17.28
2019-05-11T11:56:42.265Z,17.14
2019-05-11T12:01:48.509Z,17.06
2019-05-11T12:06:51.000Z,17.18
2019-05-11T12:11:54.388Z,17.25
2019-05-11T12:17:07.428Z,17.27
2019-05-11T12:22:02.900Z,17.30
2019-05-11T12:27:07.732Z,17.27
2019-05-11T12:32:15.516Z,17.25
2019-05-11T12:37:21.758Z,17.16
2019-05-11T12:42:24.050Z,17.09
2019-05-11T12:47:28.310Z,17.11
2019-05-11T12:52:31.712Z,17.20
2019-05-11T12:57:35.120Z,17.28
2019-05-11T13:02:38.916Z,17.47
2019-05-11T13:07:42.389Z,18.08
2019-05-11T13:12:45.776Z,18.33
2019-05-11T13:17:49.427Z,18.29
2019-05-11T13:22:53.096Z,18.11
2019-05-11T13:27:58.141Z,18.34
2019-05-11T13:33:01.728Z,18.42
2019-05-11T13:38:05.141Z,18.49
2019-05-11T13:43:08.572Z,18.44
2019-05-11T13:48:11.920Z,18.23
2019-05-11T13:53:15.314Z,18.08
2019-05-11T13:58:19.794Z,17.92
2019-05-11T14:03:23.476Z,17.79
2019-05-11T14:08:27.753Z,17.50
2019-05-11T14:13:31.477Z,17.31
2019-05-11T14:18:34.868Z,17.13
2019-05-11T14:23:38.825Z,17.00
2019-05-11T14:28:42.565Z,16.90
2019-05-11T14:33:46.198Z,16.79
2019-05-11T14:38:50.424Z,16.70
2019-05-11T14:43:53.817Z,16.55
2019-05-11T14:48:58.518Z,16.41
2019-05-11T14:54:01.973Z,16.45
2019-05-11T14:59:05.632Z,16.24
2019-05-11T15:04:09.310Z,16.14
2019-05-11T15:09:12.694Z,16.14
2019-05-11T15:14:19.521Z,16.04
2019-05-11T15:19:21.196Z,15.86
2019-05-11T15:24:28.655Z,15.86
2019-05-11T15:29:31.393Z,15.76
2019-05-11T15:34:34.784Z,15.71
2019-05-11T15:39:38.180Z,15.64
2019-05-11T15:44:41.571Z,15.63
2019-05-11T15:49:44.986Z,15.59
2019-05-11T15:54:48.397Z,15.46
2019-05-11T15:59:51.807Z,15.49
2019-05-11T16:04:55.198Z,15.38
2019-05-11T16:10:00.880Z,15.05
2019-05-11T16:15:08.562Z,14.92
2019-05-11T16:20:11.541Z,14.97
2019-05-11T16:25:15.280Z,14.90
2019-05-11T16:30:21.499Z,14.86
2019-05-11T16:35:24.531Z,14.92
2019-05-11T16:40:29.492Z,14.84
2019-05-11T16:45:33.100Z,14.80
2019-05-11T16:50:38.377Z,14.20
2019-05-11T16:55:41.839Z,13.11
2019-05-11T17:00:45.232Z,12.45
2019-05-11T17:05:48.868Z,12.09
2019-05-11T17:10:59.343Z,11.92
2019-05-11T17:16:03.128Z,11.74
2019-05-11T17:21:07.863Z,11.68
2019-05-11T17:26:11.410Z,11.50
2019-05-11T17:31:14.800Z,11.54
2019-05-11T17:36:18.792Z,11.72
2019-05-11T17:41:22.161Z,11.87
2019-05-11T17:46:27.756Z,12.08
2019-05-11T17:51:30.663Z,12.25
2019-05-11T17:56:34.077Z,12.37
2019-05-11T18:01:37.490Z,12.41
2019-05-11T18:06:40.903Z,12.41
2019-05-11T18:11:44.565Z,12.46
2019-05-11T18:16:48.194Z,12.46
2019-05-11T18:21:51.649Z,12.52
2019-05-11T18:26:55.036Z,12.66
2019-05-11T18:31:58.423Z,12.82
2019-05-11T18:37:01.831Z,12.95
2019-05-11T18:42:05.220Z,13.04
2019-05-11T18:47:08.851Z,13.04
2019-05-11T18:52:12.349Z,13.00
2019-05-11T18:57:18.596Z,12.97
2019-05-11T19:02:21.097Z,12.86
2019-05-11T19:07:24.499Z,12.75
2019-05-11T19:12:28.076Z,12.77
2019-05-11T19:17:31.458Z,12.79
2019-05-11T19:22:35.123Z,12.66
2019-05-11T19:27:38.777Z,12.55
2019-05-11T19:32:42.166Z,12.63
2019-05-11T19:37:45.559Z,12.48
2019-05-11T19:42:58.707Z,12.48
2019-05-11T19:48:01.350Z,12.57
2019-05-11T19:53:04.730Z,12.52
2019-05-11T19:58:08.361Z,12.51
2019-05-11T20:03:11.753Z,12.45
2019-05-11T20:08:15.154Z,12.44
2019-05-11T20:13:18.794Z,12.54
2019-05-11T20:18:22.212Z,12.54
2019-05-11T20:23:25.608Z,12.58
2019-05-11T20:28:29.003Z,12.25
2019-05-11T20:33:32.402Z,12.30
2019-05-11T20:38:35.799Z,12.34
2019-05-11T20:43:40.703Z,12.37
2019-05-11T20:48:44.113Z,12.31
2019-05-11T20:53:48.961Z,12.27
2019-05-11T20:58:59.346Z,12.30
2019-05-11T21:04:02.338Z,12.28
2019-05-11T21:09:07.452Z,12.15
2019-05-11T21:14:10.835Z,11.83
2019-05-11T21:19:14.224Z,11.70
2019-05-11T21:24:18.743Z,11.63
2019-05-11T21:29:22.190Z,11.60
2019-05-11T21:34:27.778Z,11.57
2019-05-11T21:39:30.712Z,11.52
2019-05-11T21:44:34.104Z,11.50
2019-05-11T21:49:37.853Z,11.42
2019-05-11T21:54:41.263Z,11.33
2019-05-11T21:59:44.891Z,11.29
2019-05-11T22:04:48.516Z,11.36
2019-05-11T22:09:51.907Z,11.39
2019-05-11T22:14:55.304Z,11.32
2019-05-11T22:19:58.705Z,11.27
2019-05-11T22:25:02.092Z,11.22
2019-05-11T22:30:08.341Z,11.23
2019-05-11T22:35:12.024Z,11.20
2019-05-11T22:40:15.685Z,11.18
2019-05-11T22:45:19.144Z,11.20
2019-05-11T22:50:22.549Z,11.16
2019-05-11T22:55:27.740Z,11.11
2019-05-11T23:00:39.586Z,11.02
2019-05-11T23:05:43.054Z,10.97
2019-05-11T23:10:47.883Z,10.98
2019-05-11T23:15:51.286Z,11.04
2019-05-11T23:20:54.682Z,11.07
2019-05-11T23:25:58.130Z,11.11
2019-05-11T23:31:01.492Z,11.08
2019-05-11T23:36:04.882Z,11.05
2019-05-11T23:41:08.407Z,11.02
2019-05-11T23:46:11.751Z,10.96
2019-05-11T23:51:15.141Z,10.99
2019-05-11T23:56:18.535Z,10.96
